Time;durP1;ratioP1;P1;durP2;ratioP2;P2;SDS_P1;SDS_P2;PMS_P1;PMS_P2;Temp;Humidity;BMP_temperature;BMP_pressure;BME280_temperature;BME280_humidity;BME280_pressure;Samples;Min_cycle;Max_cycle;Signal;HPM_P1;HPM_P2
2021/08/18 00:00:32;;;;;;;38.17;14.97;;;15.30;1.00;;;;;;5064405;28;20388;-79
2021/08/18 00:03:20;;;;;;;39.07;15.57;;;15.30;1.00;;;;;;5064886;28;20757;-79
2021/08/18 00:05:46;;;;;;;34.97;14.70;;;15.30;1.00;;;;;;5071191;28;20421;-79
2021/08/18 00:08:20;;;;;;;44.77;15.00;;;15.40;1.00;;;;;;5055637;28;20394;-79
2021/08/18 00:11:14;;;;;;;39.93;14.37;;;15.30;1.00;;;;;;5055568;28;20915;-79
2021/08/18 00:14:20;;;;;;;41.73;15.47;;;15.30;1.00;;;;;;5055914;28;20775;-79
2021/08/18 00:16:50;;;;;;;41.20;14.87;;;15.30;1.00;;;;;;5064684;28;20419;-79
2021/08/18 00:19:27;;;;;;;37.07;13.67;;;15.30;1.00;;;;;;5063660;28;20393;-79
2021/08/18 00:21:52;;;;;;;44.73;14.83;;;15.30;1.00;;;;;;5055541;28;20477;-79
2021/08/18 00:24:20;;;;;;;34.40;14.20;;;15.30;1.00;;;;;;5074042;28;20802;-79
2021/08/18 00:27:20;;;;;;;44.87;14.33;;;15.30;1.00;;;;;;5075497;28;20386;-79
2021/08/18 00:29:50;;;;;;;38.00;13.87;;;15.30;1.00;;;;;;5065615;28;20379;-79
2021/08/18 00:32:26;;;;;;;39.03;12.60;;;15.30;1.00;;;;;;5075129;28;20429;-79
2021/08/18 00:35:03;;;;;;;36.97;14.50;;;15.30;1.00;;;;;;5074144;28;20424;-79
2021/08/18 00:37:50;;;;;;;31.40;12.10;;;15.30;1.00;;;;;;5075576;28;20400;-79
2021/08/18 00:40:20;;;;;;;39.83;13.90;;;15.30;1.00;;;;;;5059983;28;20451;-79
2021/08/18 00:42:50;;;;;;;34.17;14.67;;;15.40;1.00;;;;;;5073805;28;20392;-79
2021/08/18 00:45:32;;;;;;;37.83;13.57;;;15.40;1.00;;;;;;5065270;28;20406;-79
2021/08/18 00:47:58;;;;;;;31.80;13.20;;;15.40;1.00;;;;;;5054031;28;20414;-78
2021/08/18 00:50:29;;;;;;;38.33;12.80;;;15.40;1.00;;;;;;5053767;28;20391;-78
2021/08/18 00:52:55;;;;;;;37.70;13.87;;;15.40;1.00;;;;;;5069762;28;20653;-78
2021/08/18 00:55:23;;;;;;;32.67;13.07;;;15.30;1.00;;;;;;5073818;28;20498;-78
2021/08/18 00:57:50;;;;;;;29.87;12.20;;;15.30;1.00;;;;;;5073968;28;20423;-78
2021/08/18 01:00:18;;;;;;;30.60;12.10;;;15.30;1.00;;;;;;5055109;28;20389;-78
2021/08/18 01:02:46;;;;;;;39.53;11.83;;;15.30;1.00;;;;;;5077721;28;20418;-79
2021/08/18 01:05:22;;;;;;;25.40;10.77;;;15.30;1.00;;;;;;5066424;28;20483;-78
2021/08/18 01:07:50;;;;;;;24.43;11.07;;;15.30;1.00;;;;;;5053452;28;20479;-78
2021/08/18 01:10:22;;;;;;;32.53;11.07;;;15.30;1.00;;;;;;5053993;28;20394;-78
2021/08/18 01:12:49;;;;;;;24.97;11.57;;;15.30;1.00;;;;;;5072308;28;20428;-78
2021/08/18 01:15:27;;;;;;;21.33;9.40;;;15.40;1.00;;;;;;5060323;28;20440;-78
2021/08/18 01:18:05;;;;;;;21.13;9.07;;;15.30;1.00;;;;;;5055230;28;20384;-80
2021/08/18 01:20:56;;;;;;;24.30;9.80;;;15.30;1.00;;;;;;5074314;28;20443;-79
2021/08/18 01:23:22;;;;;;;20.53;8.57;;;15.30;1.00;;;;;;5066316;28;20448;-78
2021/08/18 01:25:56;;;;;;;23.20;8.07;;;15.20;1.00;;;;;;5073077;28;20387;-78
2021/08/18 01:28:28;;;;;;;17.33;7.30;;;15.20;1.00;;;;;;5056427;28;20175;-78
2021/08/18 01:31:02;;;;;;;17.23;7.63;;;15.30;1.00;;;;;;5054371;28;20406;-79
2021/08/18 01:33:33;;;;;;;17.13;7.87;;;15.30;1.00;;;;;;5055451;28;20426;-79
2021/08/18 01:36:32;;;;;;;21.70;8.93;;;15.30;1.00;;;;;;5072231;28;20856;-79
2021/08/18 01:39:06;;;;;;;16.90;7.40;;;15.40;1.00;;;;;;5074001;28;20397;-79
2021/08/18 01:41:33;;;;;;;13.30;7.27;;;15.30;1.00;;;;;;5073879;28;20872;-79
2021/08/18 01:44:03;;;;;;;19.40;7.27;;;15.30;1.00;;;;;;5072169;28;20405;-79
2021/08/18 01:46:32;;;;;;;16.50;7.20;;;15.30;1.00;;;;;;5073854;28;20401;-78
2021/08/18 01:49:02;;;;;;;12.47;5.97;;;15.30;1.00;;;;;;5072889;28;20387;-79
2021/08/18 01:51:28;;;;;;;13.03;6.03;;;15.30;1.00;;;;;;5089279;28;20440;-79
2021/08/18 01:53:56;;;;;;;16.10;5.90;;;15.40;1.00;;;;;;5073492;28;20429;-79
2021/08/18 01:56:39;;;;;;;10.23;5.50;;;15.30;1.00;;;;;;5073837;28;20183;-79
2021/08/18 01:59:26;;;;;;;14.23;6.03;;;15.30;1.00;;;;;;5073757;28;20842;-78
2021/08/18 02:01:51;;;;;;;11.50;5.70;;;15.20;1.00;;;;;;5060469;28;20417;-79
2021/08/18 02:04:32;;;;;;;14.30;6.13;;;15.20;1.00;;;;;;5067608;28;20385;-79
2021/08/18 02:06:58;;;;;;;9.93;5.30;;;15.30;1.00;;;;;;5052363;28;20199;-79
2021/08/18 02:09:33;;;;;;;11.10;5.60;;;15.30;1.00;;;;;;5069089;28;20491;-79
2021/08/18 02:12:03;;;;;;;10.63;5.77;;;15.30;1.00;;;;;;5057420;28;20178;-79
2021/08/18 02:14:44;;;;;;;11.00;5.60;;;15.30;1.00;;;;;;5058398;28;20430;-78
2021/08/18 02:17:32;;;;;;;10.23;5.70;;;15.30;1.00;;;;;;5061620;28;20541;-78
2021/08/18 02:20:04;;;;;;;12.27;5.70;;;15.30;1.00;;;;;;5054198;28;20421;-79
2021/08/18 02:22:50;;;;;;;16.33;5.23;;;15.30;1.00;;;;;;5060478;28;20417;-79
2021/08/18 02:25:21;;;;;;;14.10;5.70;;;15.40;1.00;;;;;;5060342;28;20414;-79
2021/08/18 02:27:48;;;;;;;13.67;5.50;;;15.30;1.00;;;;;;5053582;28;20394;-79
2021/08/18 02:30:22;;;;;;;9.90;5.20;;;15.40;1.00;;;;;;5053557;28;20489;-79
2021/08/18 02:32:48;;;;;;;8.93;4.70;;;15.40;1.00;;;;;;5069926;28;20469;-78
2021/08/18 02:35:14;;;;;;;10.30;5.10;;;15.40;1.00;;;;;;5065192;28;20409;-79
2021/08/18 02:37:41;;;;;;;8.67;4.63;;;15.40;1.00;;;;;;5058232;28;20816;-79
2021/08/18 02:40:09;;;;;;;8.37;4.70;;;15.50;1.00;;;;;;5052626;28;20448;-79
2021/08/18 02:42:35;;;;;;;13.00;4.97;;;15.50;1.00;;;;;;5067322;28;21017;-79
2021/08/18 02:45:01;;;;;;;7.90;4.37;;;15.50;1.00;;;;;;5062818;28;20524;-79
2021/08/18 02:47:32;;;;;;;8.97;4.13;;;15.40;1.00;;;;;;5066118;28;20175;-79
2021/08/18 02:50:10;;;;;;;13.13;4.97;;;15.40;1.00;;;;;;5072082;28;20396;-79
2021/08/18 02:52:36;;;;;;;7.27;3.90;;;15.40;1.00;;;;;;5055428;28;20430;-79
2021/08/18 02:55:03;;;;;;;5.97;4.27;;;15.40;1.00;;;;;;5057285;28;20421;-79
2021/08/18 02:57:38;;;;;;;6.90;4.10;;;15.40;1.00;;;;;;5057247;28;20603;-79
2021/08/18 03:00:09;;;;;;;5.63;3.77;;;15.40;1.00;;;;;;5055683;28;20479;-79
2021/08/18 03:02:38;;;;;;;5.87;3.90;;;15.40;1.00;;;;;;5057155;28;20411;-79
2021/08/18 03:05:05;;;;;;;7.43;4.10;;;15.50;1.00;;;;;;5058822;28;20388;-79
2021/08/18 03:07:32;;;;;;;7.53;3.97;;;15.50;1.00;;;;;;5056606;28;20963;-79
2021/08/18 03:10:03;;;;;;;7.53;3.63;;;15.50;1.00;;;;;;5055345;28;20412;-79
2021/08/18 03:12:29;;;;;;;12.30;3.60;;;15.50;1.00;;;;;;5056890;28;20406;-79
2021/08/18 03:14:56;;;;;;;4.23;3.63;;;15.40;1.00;;;;;;5061274;28;20429;-79
2021/08/18 03:17:33;;;;;;;6.03;3.60;;;15.40;1.00;;;;;;5072222;28;20179;-79
2021/08/18 03:20:04;;;;;;;7.80;4.60;;;15.40;1.00;;;;;;5064406;28;20440;-79
2021/08/18 03:22:38;;;;;;;7.97;3.87;;;15.40;1.00;;;;;;5075750;28;20405;-79
2021/08/18 03:25:14;;;;;;;10.40;4.83;;;15.40;1.00;;;;;;5067796;28;20468;-80
2021/08/18 03:27:41;;;;;;;3.90;3.30;;;15.30;1.00;;;;;;5056643;28;20467;-79
2021/08/18 03:30:08;;;;;;;7.67;3.90;;;15.30;1.00;;;;;;5056565;28;20444;-79
2021/08/18 03:32:39;;;;;;;7.60;3.83;;;15.40;1.00;;;;;;5056899;28;20417;-79
2021/08/18 03:35:09;;;;;;;5.23;3.70;;;15.30;1.00;;;;;;5057034;28;20410;-79
2021/08/18 03:37:44;;;;;;;9.70;3.40;;;15.30;1.00;;;;;;5056869;28;20398;-79
2021/08/18 03:40:11;;;;;;;7.30;4.20;;;15.20;1.00;;;;;;5063237;28;20420;-79
2021/08/18 03:42:36;;;;;;;4.87;3.53;;;15.20;1.00;;;;;;5075790;28;20412;-79
2021/08/18 03:45:03;;;;;;;5.60;4.30;;;15.30;1.00;;;;;;5067889;28;20493;-79
2021/08/18 03:47:28;;;;;;;8.30;4.43;;;15.30;1.00;;;;;;5055312;28;20691;-79
2021/08/18 03:49:54;;;;;;;5.70;4.07;;;;;;;;;;5059864;28;20500;-79
2021/08/18 03:52:20;;;;;;;5.80;3.57;;;15.40;1.00;;;;;;5075346;28;20191;-79
2021/08/18 03:54:46;;;;;;;6.83;4.10;;;15.40;1.00;;;;;;5070652;28;20510;-79
2021/08/18 03:57:11;;;;;;;8.13;4.03;;;15.30;1.00;;;;;;5055343;28;20206;-79
2021/08/18 03:59:37;;;;;;;4.60;3.73;;;15.40;1.00;;;;;;5063749;28;20587;-79
2021/08/18 04:02:03;;;;;;;6.43;4.23;;;15.40;1.00;;;;;;5071577;28;20538;-79
2021/08/18 04:04:33;;;;;;;5.50;4.07;;;;;;;;;;5062497;28;20646;-79
2021/08/18 04:06:58;;;;;;;5.00;3.80;;;15.50;1.00;;;;;;5053938;28;20789;-79
2021/08/18 04:09:24;;;;;;;5.00;3.60;;;15.50;1.00;;;;;;5059411;28;20418;-79
2021/08/18 04:11:50;;;;;;;6.70;4.00;;;15.40;1.00;;;;;;5075675;28;20213;-79
2021/08/18 04:14:16;;;;;;;14.83;4.10;;;15.40;1.00;;;;;;5065336;28;20237;-80
2021/08/18 04:16:44;;;;;;;5.87;4.47;;;15.40;1.00;;;;;;5065293;28;20218;-78
2021/08/18 04:19:32;;;;;;;7.60;4.47;;;15.40;1.00;;;;;;5063226;28;20175;-87
2021/08/18 04:21:58;;;;;;;12.47;4.40;;;15.50;1.00;;;;;;5074982;28;20417;-82
2021/08/18 04:24:33;;;;;;;8.97;4.47;;;15.50;1.00;;;;;;5058650;28;20412;-80
2021/08/18 04:27:20;;;;;;;6.97;4.33;;;15.50;1.00;;;;;;5055417;28;20502;-81
2021/08/18 04:30:19;;;;;;;9.53;4.13;;;15.50;1.00;;;;;;5061456;28;20443;-81
2021/08/18 04:33:03;;;;;;;6.77;3.70;;;15.50;1.00;;;;;;5075305;28;20485;-81
2021/08/18 04:35:32;;;;;;;9.23;5.00;;;15.50;1.00;;;;;;5074969;28;20522;-78
2021/08/18 04:38:14;;;;;;;4.50;3.90;;;15.50;1.00;;;;;;5075289;28;20462;-78
2021/08/18 04:41:02;;;;;;;6.13;3.97;;;15.50;1.00;;;;;;5073794;28;20414;-78
2021/08/18 04:43:32;;;;;;;4.83;3.57;;;15.50;1.00;;;;;;5079098;28;20392;-79
2021/08/18 04:46:02;;;;;;;5.50;4.27;;;15.50;1.00;;;;;;5054064;28;20813;-79
2021/08/18 04:48:32;;;;;;;5.50;3.97;;;15.60;1.00;;;;;;5055518;28;20407;-78
2021/08/18 04:51:08;;;;;;;5.10;3.60;;;15.60;1.00;;;;;;5059028;28;20441;-78
2021/08/18 04:53:38;;;;;;;5.87;4.37;;;15.70;1.00;;;;;;5075290;28;20512;-78
2021/08/18 04:56:05;;;;;;;6.20;3.80;;;15.60;1.00;;;;;;5074901;28;20449;-79
2021/08/18 04:58:30;;;;;;;8.23;4.00;;;15.60;1.00;;;;;;5074609;28;20871;-78
2021/08/18 05:01:20;;;;;;;8.30;4.63;;;15.60;1.00;;;;;;5062371;28;20433;-78
2021/08/18 05:03:50;;;;;;;7.17;3.70;;;15.60;1.00;;;;;;5074409;28;20212;-78
2021/08/18 05:06:32;;;;;;;8.20;3.97;;;15.60;1.00;;;;;;5058058;28;20911;-78
2021/08/18 05:09:03;;;;;;;8.63;4.20;;;15.60;1.00;;;;;;5073845;28;20448;-78
2021/08/18 05:11:32;;;;;;;5.93;4.10;;;15.60;1.00;;;;;;5069632;28;20839;-78
2021/08/18 05:14:02;;;;;;;9.77;4.63;;;15.50;1.00;;;;;;5054988;28;20395;-78
2021/08/18 05:16:32;;;;;;;9.70;4.90;;;15.50;1.00;;;;;;5063119;28;20958;-79
2021/08/18 05:18:58;;;;;;;5.73;4.47;;;15.50;1.00;;;;;;5067134;28;20904;-78
2021/08/18 05:21:32;;;;;;;7.30;4.23;;;15.60;1.00;;;;;;5062967;28;20496;-78
2021/08/18 05:24:02;;;;;;;8.67;4.77;;;15.60;1.00;;;;;;5061177;28;20666;-87
2021/08/18 05:26:50;;;;;;;11.13;5.03;;;15.70;1.00;;;;;;5066497;28;20483;-87
2021/08/18 05:29:20;;;;;;;16.53;3.90;;;15.80;1.00;;;;;;5064378;28;20454;-86
2021/08/18 05:32:03;;;;;;;6.87;4.40;;;15.80;1.00;;;;;;5072923;28;20790;-86
2021/08/18 05:34:32;;;;;;;7.97;4.40;;;15.90;1.00;;;;;;5054164;28;20920;-85
2021/08/18 05:37:20;;;;;;;11.07;4.20;;;15.90;1.00;;;;;;5065390;28;20486;-91
2021/08/18 05:40:03;;;;;;;8.57;3.90;;;16.00;1.00;;;;;;5065756;28;20401;-89
2021/08/18 05:42:29;;;;;;;5.43;3.70;;;16.10;1.00;;;;;;5074591;28;20433;-91
2021/08/18 05:45:14;;;;;;;3.77;3.00;;;16.10;1.00;;;;;;5073778;28;20417;-91
2021/08/18 05:47:40;;;;;;;4.10;3.07;;;16.10;1.00;;;;;;5069824;28;20913;-90
2021/08/18 05:50:06;;;;;;;3.57;2.83;;;16.20;1.00;;;;;;5061143;28;20532;-90
2021/08/18 05:52:31;;;;;;;3.47;2.80;;;16.30;1.00;;;;;;5062531;28;20202;-90
2021/08/18 05:55:01;;;;;;;3.23;2.97;;;16.40;1.00;;;;;;5067885;28;20524;-89
2021/08/18 05:57:27;;;;;;;3.10;2.47;;;16.50;1.00;;;;;;5061899;28;20191;-91
2021/08/18 05:59:53;;;;;;;3.37;3.03;;;16.60;1.00;;;;;;5057217;28;20422;-92
2021/08/18 06:02:18;;;;;;;4.70;2.77;;;16.60;1.00;;;;;;5068288;28;20411;-79
2021/08/18 06:04:44;;;;;;;5.90;2.37;;;16.70;1.00;;;;;;5062329;28;20712;-79
2021/08/18 06:07:10;;;;;;;3.80;2.43;;;16.90;1.00;;;;;;5073423;28;20210;-79
2021/08/18 06:09:38;;;;;;;3.67;2.87;;;16.90;1.00;;;;;;5093446;28;20186;-79
2021/08/18 06:12:07;;;;;;;2.57;2.37;;;17.00;1.00;;;;;;5063275;28;20210;-79
2021/08/18 06:14:39;;;;;;;2.43;2.23;;;17.20;1.00;;;;;;5071456;28;20425;-78
2021/08/18 06:17:04;;;;;;;2.20;2.00;;;17.20;1.00;;;;;;5068067;28;20774;-78
2021/08/18 06:19:30;;;;;;;2.10;1.90;;;17.30;1.00;;;;;;5068985;28;20416;-78
2021/08/18 06:21:58;;;;;;;2.40;2.20;;;17.40;1.00;;;;;;5073013;28;20206;-78
2021/08/18 06:24:29;;;;;;;3.60;2.33;;;17.30;1.00;;;;;;5072790;28;20172;-78
2021/08/18 06:26:57;;;;;;;1.80;1.70;;;17.40;1.00;;;;;;5072416;28;20398;-78
2021/08/18 06:29:23;;;;;;;2.30;2.10;;;17.40;1.00;;;;;;5064811;28;20400;-78
2021/08/18 06:31:52;;;;;;;4.20;2.07;;;17.50;1.00;;;;;;5076883;28;20418;-78
2021/08/18 06:34:18;;;;;;;2.00;1.80;;;17.60;1.00;;;;;;5076535;28;20471;-78
2021/08/18 06:36:45;;;;;;;2.37;1.77;;;17.70;1.00;;;;;;5061109;28;20466;-77
2021/08/18 06:39:14;;;;;;;1.60;1.50;;;17.80;1.00;;;;;;5065584;28;20498;-77
2021/08/18 06:41:40;;;;;;;1.80;1.70;;;17.90;1.00;;;;;;5065840;28;20415;-77
2021/08/18 06:44:05;;;;;;;1.50;1.40;;;18.00;1.00;;;;;;5076365;28;20473;-77
2021/08/18 06:46:31;;;;;;;6.20;1.67;;;18.00;1.00;;;;;;5080998;28;20222;-78
2021/08/18 06:48:57;;;;;;;2.80;1.60;;;18.10;1.00;;;;;;5076284;28;20184;-78
2021/08/18 06:51:22;;;;;;;6.93;1.60;;;18.10;1.00;;;;;;5076709;28;20609;-78
2021/08/18 06:53:48;;;;;;;1.27;1.17;;;18.10;1.00;;;;;;5068820;28;20189;-78
2021/08/18 06:56:14;;;;;;;1.63;1.53;;;18.00;1.00;;;;;;5062298;28;20202;-78
2021/08/18 06:58:39;;;;;;;1.10;1.10;;;18.10;1.00;;;;;;5070662;28;20511;-78
2021/08/18 07:01:05;;;;;;;1.40;1.30;;;18.00;1.00;;;;;;5076235;28;20207;-78
2021/08/18 07:03:31;;;;;;;1.50;1.40;;;18.00;1.00;;;;;;5072597;28;20213;-78
2021/08/18 07:05:57;;;;;;;1.50;1.40;;;18.00;1.00;;;;;;5076139;28;20180;-78
2021/08/18 07:08:22;;;;;;;1.23;1.03;;;18.10;1.00;;;;;;5076478;28;20469;-78
2021/08/18 07:10:48;;;;;;;1.70;1.07;;;18.10;1.00;;;;;;5082638;28;20724;-78
2021/08/18 07:13:14;;;;;;;1.30;1.20;;;18.30;1.00;;;;;;5056125;28;20162;-78
2021/08/18 07:15:39;;;;;;;3.07;1.60;;;18.30;1.00;;;;;;5056177;28;20185;-78
2021/08/18 07:18:05;;;;;;;1.27;1.20;;;18.30;1.00;;;;;;5072910;28;20228;-77
2021/08/18 07:20:31;;;;;;;2.40;1.50;;;18.40;1.00;;;;;;5076000;28;20153;-77
2021/08/18 07:22:56;;;;;;;1.30;1.20;;;18.40;1.00;;;;;;5076154;28;20201;-77
2021/08/18 07:25:22;;;;;;;1.53;1.20;;;18.40;1.00;;;;;;5075116;28;20253;-78
2021/08/18 07:27:48;;;;;;;1.53;1.20;;;18.40;1.00;;;;;;5075640;28;20264;-78
2021/08/18 07:30:14;;;;;;;1.60;1.50;;;18.40;1.00;;;;;;5075715;28;20173;-78
2021/08/18 07:32:40;;;;;;;1.73;1.50;;;18.50;1.00;;;;;;5075936;28;20195;-78
2021/08/18 07:35:07;;;;;;;1.50;1.40;;;18.50;1.00;;;;;;5075721;28;20522;-78
2021/08/18 07:37:33;;;;;;;1.60;1.43;;;18.50;1.00;;;;;;5075167;28;20398;-77
2021/08/18 07:39:59;;;;;;;3.53;1.20;;;18.50;1.00;;;;;;5073768;28;20377;-77
2021/08/18 07:42:25;;;;;;;1.53;1.23;;;;;;;;;;5054327;28;20186;-77
2021/08/18 07:44:50;;;;;;;1.50;1.40;;;18.60;1.00;;;;;;5055630;28;20376;-77
2021/08/18 07:47:16;;;;;;;1.67;1.57;;;18.70;1.00;;;;;;5086633;28;20453;-77
2021/08/18 07:49:42;;;;;;;2.00;1.63;;;18.70;1.00;;;;;;5095616;28;20173;-77
2021/08/18 07:52:08;;;;;;;1.80;1.70;;;18.70;1.00;;;;;;5095910;28;20664;-77
2021/08/18 07:54:34;;;;;;;2.20;1.70;;;18.80;1.00;;;;;;5093977;28;20624;-77
2021/08/18 07:57:00;;;;;;;1.30;1.20;;;18.90;1.00;;;;;;5065074;28;20198;-77
2021/08/18 07:59:26;;;;;;;1.50;1.40;;;18.90;1.00;;;;;;5073778;28;20756;-77
2021/08/18 08:01:52;;;;;;;2.27;2.07;;;18.90;1.00;;;;;;5072282;28;20703;-77
2021/08/18 08:04:17;;;;;;;2.40;1.67;;;18.90;1.00;;;;;;5066388;28;20201;-77
2021/08/18 08:06:44;;;;;;;1.30;1.20;;;19.00;1.00;;;;;;5072621;28;20242;-77
2021/08/18 08:09:11;;;;;;;1.23;1.10;;;18.90;1.00;;;;;;5061730;28;20192;-77
2021/08/18 08:11:38;;;;;;;1.70;1.60;;;18.70;1.00;;;;;;5070717;28;20430;-77
2021/08/18 08:14:04;;;;;;;3.20;1.30;;;18.70;1.00;;;;;;5074659;28;20846;-77
2021/08/18 08:16:32;;;;;;;1.20;1.20;;;18.70;1.00;;;;;;5074832;28;20190;-77
2021/08/18 08:18:58;;;;;;;2.13;1.20;;;18.70;1.00;;;;;;5071782;28;20220;-77
2021/08/18 08:21:25;;;;;;;1.70;1.50;;;18.80;1.00;;;;;;5072042;28;20420;-77
2021/08/18 08:23:51;;;;;;;1.20;1.07;;;18.90;1.00;;;;;;5075135;28;20257;-77
2021/08/18 08:26:16;;;;;;;2.30;1.30;;;19.00;1.00;;;;;;5074110;28;20519;-77
2021/08/18 08:28:43;;;;;;;1.20;1.10;;;19.20;1.00;;;;;;5074573;28;20404;-77
2021/08/18 08:31:09;;;;;;;1.00;0.90;;;19.20;1.00;;;;;;5073285;28;20184;-83
2021/08/18 08:33:35;;;;;;;4.67;1.23;;;19.30;1.00;;;;;;5070091;28;20425;-84
2021/08/18 08:36:01;;;;;;;0.97;0.97;;;19.30;1.00;;;;;;5067773;28;20198;-77
2021/08/18 08:38:27;;;;;;;1.17;1.07;;;19.20;1.00;;;;;;5073896;28;20535;-81
2021/08/18 08:40:52;;;;;;;10.10;1.47;;;19.30;1.00;;;;;;5063555;28;20254;-78
2021/08/18 08:43:24;;;;;;;2.20;1.10;;;19.40;1.00;;;;;;5054485;28;20532;-78
2021/08/18 08:45:50;;;;;;;1.80;1.33;;;19.50;1.00;;;;;;5058428;28;20175;-78
2021/08/18 08:48:20;;;;;;;1.00;1.00;;;19.40;1.00;;;;;;5059286;28;20444;-78
2021/08/18 08:50:48;;;;;;;1.57;1.10;;;19.40;1.00;;;;;;5061211;28;20429;-78
2021/08/18 08:53:14;;;;;;;1.70;1.60;;;19.30;1.00;;;;;;5063335;28;20441;-78
2021/08/18 08:55:41;;;;;;;1.33;1.13;;;19.30;1.00;;;;;;5053693;28;20485;-78
2021/08/18 08:58:07;;;;;;;1.60;1.13;;;19.20;1.00;;;;;;5069427;28;20434;-78
2021/08/18 09:00:33;;;;;;;1.20;1.20;;;19.10;1.00;;;;;;5060538;28;20416;-78
2021/08/18 09:03:16;;;;;;;1.13;1.10;;;19.10;1.00;;;;;;5055076;28;20410;-79
2021/08/18 09:05:46;;;;;;;1.77;1.20;;;19.10;1.00;;;;;;5067032;28;20420;-78
2021/08/18 09:08:17;;;;;;;3.33;1.17;;;19.00;1.00;;;;;;5066605;28;20414;-78
2021/08/18 09:11:07;;;;;;;10.30;1.53;;;19.10;1.00;;;;;;5059314;28;20441;-78
2021/08/18 09:13:44;;;;;;;9.43;1.43;;;19.20;1.00;;;;;;5073333;28;20416;-79
2021/08/18 09:16:11;;;;;;;2.50;1.13;;;19.20;1.00;;;;;;5073440;28;20419;-78
2021/08/18 09:18:46;;;;;;;1.40;1.30;;;19.30;1.00;;;;;;5072333;28;20867;-78
2021/08/18 09:21:36;;;;;;;2.23;1.23;;;19.30;1.00;;;;;;5072088;28;20391;-78
2021/08/18 09:24:11;;;;;;;1.57;1.23;;;19.30;1.00;;;;;;5073696;28;20388;-78
2021/08/18 09:26:37;;;;;;;7.77;1.57;;;19.40;1.00;;;;;;5062802;28;20404;-78
2021/08/18 09:29:02;;;;;;;2.30;1.10;;;19.40;1.00;;;;;;5071450;28;20383;-78
2021/08/18 09:31:28;;;;;;;1.13;1.03;;;19.70;1.00;;;;;;5073689;28;20819;-78
2021/08/18 09:33:56;;;;;;;1.33;1.23;;;19.90;1.00;;;;;;5072770;28;20201;-78
2021/08/18 09:36:27;;;;;;;2.30;1.40;;;20.10;1.00;;;;;;5073127;28;20203;-78
2021/08/18 09:39:21;;;;;;;1.13;1.03;;;20.30;1.00;;;;;;5068853;28;20409;-78
2021/08/18 09:41:49;;;;;;;3.03;1.23;;;20.70;1.00;;;;;;5067482;28;20461;-78
2021/08/18 09:44:14;;;;;;;1.37;1.27;;;20.80;1.00;;;;;;5071844;28;20414;-78
2021/08/18 09:46:40;;;;;;;1.40;1.30;;;21.20;1.00;;;;;;5072984;28;20758;-78
2021/08/18 09:49:11;;;;;;;1.53;1.30;;;21.20;1.00;;;;;;5071351;28;20453;-78
2021/08/18 09:51:38;;;;;;;1.20;1.20;;;21.30;1.00;;;;;;5059985;28;20246;-78
2021/08/18 09:54:15;;;;;;;2.33;1.40;;;21.50;1.00;;;;;;5055087;28;20406;-78
2021/08/18 09:56:43;;;;;;;1.50;1.40;;;21.70;1.00;;;;;;5054664;28;20513;-78
2021/08/18 09:59:09;;;;;;;5.93;1.60;;;21.70;1.00;;;;;;5072382;28;20419;-78
2021/08/18 10:01:35;;;;;;;5.77;2.27;;;22.20;1.00;;;;;;5072567;28;20461;-78
2021/08/18 10:04:01;;;;;;;2.73;1.97;;;22.20;1.00;;;;;;5072821;28;20752;-78
2021/08/18 10:06:27;;;;;;;3.47;1.60;;;22.40;1.00;;;;;;5068692;28;20473;-78
2021/08/18 10:08:55;;;;;;;1.53;1.30;;;22.40;1.00;;;;;;5053450;28;20415;-78
2021/08/18 10:11:23;;;;;;;3.23;1.50;;;22.50;1.00;;;;;;5052742;28;20402;-78
2021/08/18 10:13:49;;;;;;;2.23;1.40;;;22.70;1.00;;;;;;5052639;28;20877;-78
2021/08/18 10:16:16;;;;;;;2.37;1.53;;;22.80;1.00;;;;;;5060280;28;20457;-78
2021/08/18 10:18:49;;;;;;;2.93;1.67;;;22.80;1.00;;;;;;5072743;28;20730;-78
2021/08/18 10:21:32;;;;;;;4.33;1.40;;;22.70;1.00;;;;;;5071717;28;20425;-78
2021/08/18 10:23:59;;;;;;;1.37;1.00;;;22.70;1.00;;;;;;5072275;28;20421;-78
2021/08/18 10:26:36;;;;;;;2.40;1.30;;;22.60;1.00;;;;;;5072681;28;20368;-78
2021/08/18 10:29:15;;;;;;;2.57;1.30;;;22.60;1.00;;;;;;5072406;28;20406;-78
2021/08/18 10:31:43;;;;;;;1.30;1.20;;;22.60;1.00;;;;;;5072972;28;20440;-78
2021/08/18 10:34:25;;;;;;;3.33;1.63;;;22.60;1.00;;;;;;5072872;28;20404;-90
2021/08/18 10:36:52;;;;;;;1.30;1.20;;;22.80;1.00;;;;;;5056575;28;20494;-89
2021/08/18 10:39:26;;;;;;;3.20;1.20;;;22.80;1.00;;;;;;5052944;28;20414;-79
2021/08/18 10:42:16;;;;;;;1.00;1.00;;;22.80;1.00;;;;;;5052420;28;20475;-79
2021/08/18 10:44:46;;;;;;;1.57;1.00;;;;;;;;;;5065769;28;20461;-79
2021/08/18 10:47:28;;;;;;;1.80;1.17;;;22.60;1.00;;;;;;5070950;28;20451;-80
2021/08/18 10:50:12;;;;;;;0.93;0.93;;;22.50;1.00;;;;;;5069058;28;20436;-78
2021/08/18 10:52:38;;;;;;;1.13;1.00;;;22.30;1.00;;;;;;5070911;28;20479;-78
2021/08/18 10:55:17;;;;;;;1.10;1.10;;;22.10;1.00;;;;;;5072635;28;20424;-77
2021/08/18 10:57:50;;;;;;;0.83;0.83;;;22.10;1.00;;;;;;5072257;28;20181;-77
2021/08/18 11:00:34;;;;;;;1.00;1.00;;;22.20;1.00;;;;;;5072412;28;20384;-77
2021/08/18 11:03:26;;;;;;;5.63;1.30;;;22.30;1.00;;;;;;5071969;28;20392;-77
2021/08/18 11:05:53;;;;;;;1.20;1.10;;;22.40;1.00;;;;;;5055341;28;20425;-77
2021/08/18 11:08:36;;;;;;;2.50;1.10;;;22.70;1.00;;;;;;5052188;28;20398;-78
2021/08/18 11:11:01;;;;;;;1.33;0.80;;;22.80;1.00;;;;;;5052208;28;20401;-78
2021/08/18 11:13:52;;;;;;;1.63;1.00;;;23.20;1.00;;;;;;5053936;28;20688;-77
2021/08/18 11:16:31;;;;;;;1.80;1.10;;;23.30;1.00;;;;;;5061633;28;20471;-77
2021/08/18 11:19:11;;;;;;;8.30;1.10;;;23.40;1.00;;;;;;5067819;28;20444;-78
2021/08/18 11:21:42;;;;;;;1.23;1.20;;;23.50;1.00;;;;;;5072950;28;20446;-78
2021/08/18 11:24:12;;;;;;;1.03;0.90;;;23.60;1.00;;;;;;5072233;28;20421;-79
2021/08/18 11:26:39;;;;;;;2.20;1.00;;;23.60;1.00;;;;;;5055829;28;20383;-78
2021/08/18 11:29:07;;;;;;;0.90;0.90;;;23.70;1.00;;;;;;5055784;28;20887;-78
2021/08/18 11:31:40;;;;;;;1.30;1.17;;;23.70;1.00;;;;;;5055879;28;20406;-78
2021/08/18 11:34:31;;;;;;;1.37;1.23;;;23.90;1.00;;;;;;5063573;28;20769;-78
2021/08/18 11:37:03;;;;;;;1.73;1.10;;;23.90;1.00;;;;;;5075537;28;20417;-78
2021/08/18 11:39:35;;;;;;;2.40;1.00;;;23.90;1.00;;;;;;5066464;28;20411;-78
2021/08/18 11:42:19;;;;;;;1.47;1.13;;;23.90;1.00;;;;;;5055593;28;20397;-78
2021/08/18 11:44:46;;;;;;;1.00;1.00;;;24.10;1.00;;;;;;5055588;28;20446;-79
2021/08/18 11:47:16;;;;;;;1.00;0.90;;;24.20;1.00;;;;;;5069923;28;20780;-78
2021/08/18 11:49:46;;;;;;;3.57;1.10;;;24.20;1.00;;;;;;5056878;28;20538;-79
2021/08/18 11:52:16;;;;;;;1.20;0.80;;;24.10;1.00;;;;;;5054038;28;20789;-78
2021/08/18 11:54:54;;;;;;;0.90;0.90;;;23.80;1.00;;;;;;5055588;28;20426;-77
2021/08/18 11:57:21;;;;;;;1.20;1.10;;;23.90;1.00;;;;;;5082537;28;20798;-77
2021/08/18 11:59:51;;;;;;;1.20;1.10;;;24.30;1.00;;;;;;5075047;28;20512;-77
2021/08/18 12:02:17;;;;;;;1.20;1.10;;;24.40;1.00;;;;;;5072171;28;20502;-77
2021/08/18 12:04:44;;;;;;;1.30;1.20;;;24.40;1.00;;;;;;5074247;28;20427;-77
2021/08/18 12:07:15;;;;;;;1.90;1.07;;;24.40;1.00;;;;;;5074827;28;20396;-77
2021/08/18 12:09:45;;;;;;;2.30;1.20;;;24.40;1.00;;;;;;5075495;28;20391;-77
2021/08/18 12:12:22;;;;;;;1.53;1.43;;;24.30;1.00;;;;;;5074292;28;20398;-78
2021/08/18 12:14:53;;;;;;;2.23;1.17;;;24.20;1.00;;;;;;5074243;28;21614;-78
2021/08/18 12:17:20;;;;;;;1.20;1.20;;;24.20;1.00;;;;;;5062059;28;20471;-78
2021/08/18 12:19:51;;;;;;;2.17;1.40;;;23.90;1.00;;;;;;5065765;28;20447;-78
2021/08/18 12:22:27;;;;;;;1.60;1.50;;;24.00;1.00;;;;;;5073439;28;20513;-78
2021/08/18 12:25:09;;;;;;;2.43;1.20;;;24.10;1.00;;;;;;5070426;28;20456;-78
2021/08/18 12:27:35;;;;;;;3.00;1.20;;;24.30;1.00;;;;;;5072102;28;20451;-78
2021/08/18 12:30:10;;;;;;;1.40;1.30;;;24.60;1.00;;;;;;5072396;28;20443;-78
2021/08/18 12:32:36;;;;;;;1.40;1.30;;;24.70;1.00;;;;;;5074866;28;20438;-77
2021/08/18 12:35:06;;;;;;;1.20;1.20;;;24.90;1.00;;;;;;5071769;28;20449;-77
2021/08/18 12:37:38;;;;;;;1.50;1.40;;;25.20;1.00;;;;;;5054977;28;21039;-78
2021/08/18 12:40:23;;;;;;;1.50;1.40;;;25.20;1.00;;;;;;5072972;28;20765;-77
2021/08/18 12:42:57;;;;;;;1.30;1.20;;;25.20;1.00;;;;;;5069918;28;20433;-78
2021/08/18 12:45:28;;;;;;;1.10;1.10;;;25.10;1.00;;;;;;5054380;28;20431;-78
2021/08/18 12:47:57;;;;;;;0.90;0.90;;;25.10;1.00;;;;;;5069772;28;20451;-77
2021/08/18 12:50:37;;;;;;;3.47;1.07;;;24.90;1.00;;;;;;5052977;28;20825;-77
2021/08/18 12:53:04;;;;;;;1.60;1.50;;;24.90;1.00;;;;;;5058477;28;20458;-77
2021/08/18 12:55:30;;;;;;;1.20;1.20;;;24.70;1.00;;;;;;5074447;28;20475;-78
2021/08/18 12:57:56;;;;;;;1.37;1.20;;;24.60;1.00;;;;;;5072068;28;20525;-77
2021/08/18 13:00:22;;;;;;;4.63;1.40;;;24.50;1.00;;;;;;5068175;28;20199;-77
2021/08/18 13:02:48;;;;;;;1.30;1.20;;;24.50;1.00;;;;;;5072704;28;20832;-77
2021/08/18 13:05:14;;;;;;;1.10;1.10;;;24.50;1.00;;;;;;5073740;28;20193;-77
2021/08/18 13:07:40;;;;;;;2.10;1.00;;;24.40;1.00;;;;;;5053758;28;20185;-77
2021/08/18 13:10:07;;;;;;;1.20;1.10;;;24.20;1.00;;;;;;5054110;28;20399;-77
2021/08/18 13:12:37;;;;;;;1.40;1.30;;;23.90;1.00;;;;;;5053739;28;20400;-77
2021/08/18 13:15:04;;;;;;;1.33;1.23;;;23.90;1.00;;;;;;5053907;28;20459;-77